CES5341 ZSSS-ZGSZ
Flight info
| Callsign | CES5341 |
|---|---|
| Flight time | 1h 55m |
| Altitude | 40100 |
| Route | NXD W131 AKDIM A470 BEBEM R200 GUBLO |
| Aircraft | A359/H-SDE2E3GHIJ3J4J5LM1ORWXY/LB1D1 |
Departure
| Time | 2026-04-30 11:12 |
|---|---|
| Airport | Shanghai Hongqiao International Airport (ZSSS) |
Arrival
| Time | 2026-04-30 13:07 |
|---|---|
| Airport | Shenzhen Bao'an International Airport (ZGSZ) |
| Time | Latitude | Longitude | Altitude | Speed | Heading |
|---|---|---|---|---|---|
| 2026-04-30 10:40 | 31.19008 | 121.32812 | 25 ft | 0 kts | 194° |
| 2026-04-30 11:00 | 31.19011 | 121.32813 | 30 ft | 3 kts | 194° |
| 2026-04-30 11:00 | 31.19028 | 121.32818 | 30 ft | 4 kts | 194° |
| 2026-04-30 11:00 | 31.19060 | 121.32824 | 29 ft | 4 kts | 165° |
| 2026-04-30 11:00 | 31.19074 | 121.32816 | 30 ft | 4 kts | 130° |
| 2026-04-30 11:01 | 31.19087 | 121.32790 | 30 ft | 4 kts | 104° |
| 2026-04-30 11:01 | 31.19091 | 121.32759 | 29 ft | 4 kts | 94° |
| 2026-04-30 11:01 | 31.19092 | 121.32729 | 30 ft | 2 kts | 87° |
| 2026-04-30 11:01 | 31.19092 | 121.32727 | 30 ft | 0 kts | 87° |
| 2026-04-30 11:04 | 31.19092 | 121.32729 | 30 ft | 1 kts | 87° |
| 2026-04-30 11:04 | 31.19093 | 121.32766 | 31 ft | 17 kts | 88° |
| 2026-04-30 11:04 | 31.19098 | 121.32900 | 28 ft | 14 kts | 88° |
| 2026-04-30 11:04 | 31.19100 | 121.32950 | 28 ft | 1 kts | 87° |
| 2026-04-30 11:05 | 31.19099 | 121.32966 | 28 ft | 4 kts | 98° |
| 2026-04-30 11:05 | 31.19076 | 121.33004 | 30 ft | 7 kts | 145° |
| 2026-04-30 11:05 | 31.19012 | 121.33015 | 28 ft | 12 kts | 176° |
| 2026-04-30 11:05 | 31.18916 | 121.33021 | 28 ft | 16 kts | 176° |
| 2026-04-30 11:06 | 31.18796 | 121.33028 | 28 ft | 17 kts | 178° |
| 2026-04-30 11:06 | 31.18695 | 121.33033 | 29 ft | 16 kts | 177° |
| 2026-04-30 11:06 | 31.18581 | 121.33039 | 28 ft | 13 kts | 177° |
| 2026-04-30 11:06 | 31.18478 | 121.33045 | 28 ft | 14 kts | 177° |
| 2026-04-30 11:07 | 31.18400 | 121.33049 | 28 ft | 10 kts | 177° |
| 2026-04-30 11:07 | 31.18344 | 121.33071 | 28 ft | 8 kts | 127° |
| 2026-04-30 11:07 | 31.18341 | 121.33152 | 29 ft | 12 kts | 88° |
| 2026-04-30 11:07 | 31.18342 | 121.33197 | 29 ft | 0 kts | 88° |
| 2026-04-30 11:09 | 31.18342 | 121.33198 | 29 ft | 1 kts | 88° |
| 2026-04-30 11:10 | 31.18343 | 121.33218 | 30 ft | 6 kts | 88° |
| 2026-04-30 11:10 | 31.18346 | 121.33287 | 25 ft | 9 kts | 85° |
| 2026-04-30 11:10 | 31.18388 | 121.33321 | 31 ft | 8 kts | 0° |
| 2026-04-30 11:10 | 31.18391 | 121.33321 | 30 ft | 0 kts | 0° |
| 2026-04-30 11:11 | 31.18392 | 121.33321 | 30 ft | 1 kts | 0° |
| 2026-04-30 11:11 | 31.18600 | 121.33312 | 27 ft | 73 kts | 357° |
| 2026-04-30 11:11 | 31.19390 | 121.33268 | 26 ft | 153 kts | 357° |
| 2026-04-30 11:11 | 31.20630 | 121.33197 | 431 ft | 190 kts | 356° |
| 2026-04-30 11:12 | 31.21941 | 121.33112 | 1567 ft | 191 kts | 353° |
| 2026-04-30 11:12 | 31.23102 | 121.32428 | 2419 ft | 193 kts | 313° |
| 2026-04-30 11:12 | 31.23813 | 121.31066 | 3079 ft | 205 kts | 298° |
| 2026-04-30 11:12 | 31.24482 | 121.29503 | 3646 ft | 221 kts | 297° |
| 2026-04-30 11:13 | 31.25212 | 121.27898 | 4386 ft | 223 kts | 300° |
| 2026-04-30 11:13 | 31.25976 | 121.26322 | 4838 ft | 222 kts | 301° |
| 2026-04-30 11:13 | 31.26763 | 121.24766 | 4929 ft | 223 kts | 301° |
| 2026-04-30 11:13 | 31.27340 | 121.23090 | 4933 ft | 229 kts | 283° |
| 2026-04-30 11:14 | 31.27246 | 121.21233 | 4989 ft | 234 kts | 253° |
| 2026-04-30 11:14 | 31.26434 | 121.19500 | 5258 ft | 256 kts | 238° |
| 2026-04-30 11:14 | 31.25349 | 121.17770 | 5915 ft | 268 kts | 236° |
| 2026-04-30 11:14 | 31.24211 | 121.16012 | 6720 ft | 274 kts | 236° |
| 2026-04-30 11:15 | 31.23050 | 121.14233 | 7549 ft | 276 kts | 234° |
| 2026-04-30 11:15 | 31.21625 | 121.12707 | 8448 ft | 283 kts | 217° |
| 2026-04-30 11:15 | 31.19778 | 121.11919 | 9314 ft | 293 kts | 192° |
| 2026-04-30 11:15 | 31.17716 | 121.11861 | 10143 ft | 300 kts | 182° |
| 2026-04-30 11:16 | 31.15573 | 121.11997 | 10570 ft | 317 kts | 181° |
| 2026-04-30 11:16 | 31.13310 | 121.12158 | 10898 ft | 335 kts | 182° |
| 2026-04-30 11:16 | 31.10942 | 121.12109 | 11218 ft | 344 kts | 194° |
| 2026-04-30 11:16 | 31.08700 | 121.11234 | 11734 ft | 338 kts | 214° |
| 2026-04-30 11:17 | 31.06903 | 121.09537 | 12436 ft | 327 kts | 234° |
| 2026-04-30 11:17 | 31.05752 | 121.07336 | 13189 ft | 319 kts | 251° |
| 2026-04-30 11:17 | 31.05058 | 121.04898 | 13931 ft | 317 kts | 256° |
| 2026-04-30 11:17 | 31.04462 | 121.02418 | 14566 ft | 317 kts | 257° |
| 2026-04-30 11:18 | 31.03870 | 120.99932 | 15177 ft | 319 kts | 257° |
| 2026-04-30 11:18 | 31.02655 | 120.94938 | 16374 ft | 323 kts | 257° |
| 2026-04-30 11:18 | 31.02027 | 120.92390 | 16839 ft | 329 kts | 257° |
| 2026-04-30 11:19 | 31.01391 | 120.89816 | 17460 ft | 330 kts | 257° |
| 2026-04-30 11:19 | 31.00754 | 120.87248 | 18122 ft | 330 kts | 257° |
| 2026-04-30 11:19 | 31.00116 | 120.84679 | 18682 ft | 330 kts | 256° |
| 2026-04-30 11:19 | 30.99481 | 120.82124 | 19337 ft | 326 kts | 256° |
| 2026-04-30 11:20 | 30.98855 | 120.79613 | 19852 ft | 327 kts | 256° |
| 2026-04-30 11:20 | 30.98216 | 120.77051 | 20347 ft | 329 kts | 256° |
| 2026-04-30 11:20 | 30.97578 | 120.74495 | 20853 ft | 329 kts | 256° |
| 2026-04-30 11:20 | 30.96936 | 120.71927 | 21367 ft | 330 kts | 256° |
| 2026-04-30 11:21 | 30.96291 | 120.69351 | 21857 ft | 330 kts | 256° |
| 2026-04-30 11:21 | 30.95647 | 120.66778 | 22359 ft | 331 kts | 256° |
| 2026-04-30 11:21 | 30.95001 | 120.64198 | 22839 ft | 332 kts | 256° |
| 2026-04-30 11:21 | 30.94352 | 120.61611 | 23315 ft | 333 kts | 256° |
| 2026-04-30 11:22 | 30.93707 | 120.59043 | 23780 ft | 334 kts | 256° |
| 2026-04-30 11:22 | 30.93053 | 120.56438 | 24149 ft | 336 kts | 256° |
| 2026-04-30 11:22 | 30.92392 | 120.53813 | 24499 ft | 338 kts | 256° |
| 2026-04-30 11:22 | 30.91729 | 120.51177 | 24877 ft | 339 kts | 256° |
| 2026-04-30 11:23 | 30.91036 | 120.48540 | 25265 ft | 341 kts | 254° |
| 2026-04-30 11:23 | 30.90124 | 120.45974 | 25656 ft | 346 kts | 248° |
| 2026-04-30 11:23 | 30.87289 | 120.41350 | 26428 ft | 360 kts | 233° |
| 2026-04-30 11:24 | 30.85408 | 120.39419 | 26793 ft | 369 kts | 227° |
| 2026-04-30 11:24 | 30.83341 | 120.37594 | 27160 ft | 375 kts | 225° |
| 2026-04-30 11:24 | 30.81199 | 120.35832 | 27618 ft | 377 kts | 224° |
| 2026-04-30 11:25 | 30.76843 | 120.32353 | 28594 ft | 381 kts | 224° |
| 2026-04-30 11:25 | 30.74657 | 120.30599 | 29065 ft | 383 kts | 224° |
| 2026-04-30 11:25 | 30.70266 | 120.27031 | 30043 ft | 387 kts | 224° |
| 2026-04-30 11:26 | 30.65848 | 120.23408 | 30866 ft | 390 kts | 224° |
| 2026-04-30 11:26 | 30.63651 | 120.21605 | 31307 ft | 392 kts | 224° |
| 2026-04-30 11:26 | 30.61416 | 120.19773 | 31739 ft | 394 kts | 225° |
| 2026-04-30 11:27 | 30.59168 | 120.17929 | 32151 ft | 397 kts | 225° |
| 2026-04-30 11:27 | 30.56905 | 120.16076 | 32556 ft | 399 kts | 225° |
| 2026-04-30 11:27 | 30.54627 | 120.14212 | 32948 ft | 401 kts | 225° |
| 2026-04-30 11:27 | 30.52338 | 120.12341 | 33327 ft | 403 kts | 225° |
| 2026-04-30 11:28 | 30.47751 | 120.08594 | 34015 ft | 409 kts | 225° |
| 2026-04-30 11:28 | 30.45386 | 120.06663 | 34248 ft | 412 kts | 225° |
| 2026-04-30 11:28 | 30.42987 | 120.04853 | 34500 ft | 420 kts | 222° |
| 2026-04-30 11:29 | 30.40477 | 120.03116 | 34897 ft | 419 kts | 221° |
| 2026-04-30 11:29 | 30.37954 | 120.01415 | 35347 ft | 418 kts | 220° |
| 2026-04-30 11:29 | 30.33010 | 119.98133 | 36147 ft | 418 kts | 220° |
| 2026-04-30 11:30 | 30.27960 | 119.94789 | 36922 ft | 418 kts | 219° |
| 2026-04-30 11:30 | 30.25437 | 119.93116 | 37321 ft | 417 kts | 219° |
| 2026-04-30 11:30 | 30.22949 | 119.91464 | 37723 ft | 417 kts | 219° |
| 2026-04-30 11:31 | 30.20434 | 119.89796 | 38117 ft | 417 kts | 218° |
| 2026-04-30 11:31 | 30.17907 | 119.88123 | 38450 ft | 418 kts | 219° |
| 2026-04-30 11:31 | 30.15392 | 119.86456 | 38863 ft | 416 kts | 219° |
| 2026-04-30 11:31 | 30.12882 | 119.84789 | 39194 ft | 416 kts | 219° |
| 2026-04-30 11:32 | 30.10368 | 119.83118 | 39464 ft | 416 kts | 219° |
| 2026-04-30 11:32 | 30.07844 | 119.81442 | 39635 ft | 421 kts | 219° |
| 2026-04-30 11:32 | 30.05288 | 119.79742 | 39691 ft | 425 kts | 219° |
| 2026-04-30 11:33 | 30.00181 | 119.76356 | 40209 ft | 421 kts | 219° |
| 2026-04-30 11:33 | 29.97689 | 119.74680 | 40225 ft | 420 kts | 220° |
| 2026-04-30 11:33 | 29.92639 | 119.71268 | 40219 ft | 421 kts | 219° |
| 2026-04-30 11:34 | 29.87432 | 119.68068 | 40218 ft | 431 kts | 213° |
| 2026-04-30 11:34 | 29.84554 | 119.66941 | 40207 ft | 442 kts | 206° |
| 2026-04-30 11:34 | 29.81479 | 119.66287 | 40184 ft | 455 kts | 198° |
| 2026-04-30 11:35 | 29.75101 | 119.65782 | 40221 ft | 461 kts | 194° |
| 2026-04-30 11:35 | 29.68745 | 119.65440 | 40221 ft | 460 kts | 195° |
| 2026-04-30 11:36 | 29.62350 | 119.65035 | 40217 ft | 459 kts | 195° |
| 2026-04-30 11:36 | 29.55928 | 119.64784 | 40198 ft | 463 kts | 193° |
| 2026-04-30 11:37 | 29.49497 | 119.64577 | 40218 ft | 460 kts | 195° |
| 2026-04-30 11:37 | 29.43116 | 119.64191 | 40228 ft | 459 kts | 195° |
| 2026-04-30 11:38 | 29.36729 | 119.63769 | 40214 ft | 459 kts | 195° |
| 2026-04-30 11:38 | 29.30382 | 119.63365 | 40208 ft | 460 kts | 195° |
| 2026-04-30 11:39 | 29.23980 | 119.62968 | 40217 ft | 460 kts | 195° |
| 2026-04-30 11:39 | 29.17573 | 119.62579 | 40221 ft | 461 kts | 195° |
| 2026-04-30 11:40 | 29.11170 | 119.62188 | 40216 ft | 461 kts | 195° |
| 2026-04-30 11:40 | 29.04759 | 119.61805 | 40213 ft | 461 kts | 195° |
| 2026-04-30 11:41 | 28.98385 | 119.61405 | 40214 ft | 461 kts | 195° |
| 2026-04-30 11:41 | 28.91976 | 119.60997 | 40212 ft | 461 kts | 195° |
| 2026-04-30 11:42 | 28.85559 | 119.60588 | 40219 ft | 462 kts | 195° |
| 2026-04-30 11:42 | 28.79137 | 119.60190 | 40214 ft | 462 kts | 194° |
| 2026-04-30 11:43 | 28.72745 | 119.59801 | 40215 ft | 463 kts | 195° |
| 2026-04-30 11:43 | 28.66316 | 119.59403 | 40214 ft | 462 kts | 195° |
| 2026-04-30 11:44 | 28.59894 | 119.59009 | 40211 ft | 462 kts | 194° |
| 2026-04-30 11:44 | 28.53478 | 119.58612 | 40211 ft | 459 kts | 194° |
| 2026-04-30 11:45 | 28.47157 | 119.58226 | 40212 ft | 457 kts | 194° |
| 2026-04-30 11:45 | 28.43984 | 119.58031 | 40212 ft | 457 kts | 194° |
| 2026-04-30 11:46 | 28.38613 | 119.57727 | 40213 ft | 457 kts | 193° |
| 2026-04-30 11:46 | 28.33319 | 119.57440 | 40168 ft | 458 kts | 193° |
| 2026-04-30 11:47 | 28.26964 | 119.57091 | 40201 ft | 457 kts | 193° |
| 2026-04-30 11:47 | 28.20608 | 119.56742 | 40203 ft | 456 kts | 193° |
| 2026-04-30 11:48 | 28.14268 | 119.56395 | 40205 ft | 456 kts | 193° |
| 2026-04-30 11:48 | 28.07910 | 119.56063 | 40147 ft | 458 kts | 192° |
| 2026-04-30 11:49 | 28.01573 | 119.55947 | 40202 ft | 458 kts | 190° |
| 2026-04-30 11:49 | 27.95210 | 119.55905 | 40199 ft | 457 kts | 190° |
| 2026-04-30 11:50 | 27.88848 | 119.55852 | 40201 ft | 458 kts | 190° |
| 2026-04-30 11:50 | 27.82470 | 119.55820 | 40193 ft | 458 kts | 190° |
| 2026-04-30 11:51 | 27.76099 | 119.55795 | 40193 ft | 458 kts | 190° |
| 2026-04-30 11:51 | 27.69722 | 119.55761 | 40190 ft | 457 kts | 190° |
| 2026-04-30 11:52 | 27.63355 | 119.55723 | 40187 ft | 457 kts | 190° |
| 2026-04-30 11:52 | 27.57020 | 119.55687 | 40191 ft | 458 kts | 190° |
| 2026-04-30 11:53 | 27.50647 | 119.55646 | 40183 ft | 458 kts | 189° |
| 2026-04-30 11:53 | 27.44262 | 119.55613 | 40183 ft | 458 kts | 189° |
| 2026-04-30 11:54 | 27.37879 | 119.55588 | 40182 ft | 459 kts | 189° |
| 2026-04-30 11:54 | 27.31490 | 119.55585 | 40178 ft | 459 kts | 189° |
| 2026-04-30 11:55 | 27.25104 | 119.55580 | 40176 ft | 458 kts | 189° |
| 2026-04-30 11:55 | 27.18775 | 119.55552 | 40175 ft | 457 kts | 189° |
| 2026-04-30 11:56 | 27.12416 | 119.55501 | 40175 ft | 457 kts | 189° |
| 2026-04-30 11:56 | 27.06046 | 119.55454 | 40175 ft | 457 kts | 189° |
| 2026-04-30 11:57 | 26.99686 | 119.55412 | 40177 ft | 459 kts | 189° |
| 2026-04-30 11:57 | 26.93279 | 119.55370 | 40180 ft | 460 kts | 189° |
| 2026-04-30 11:58 | 26.86861 | 119.55331 | 40183 ft | 461 kts | 189° |
| 2026-04-30 11:58 | 26.80495 | 119.55293 | 40186 ft | 460 kts | 189° |
| 2026-04-30 11:59 | 26.74079 | 119.55251 | 40174 ft | 461 kts | 188° |
| 2026-04-30 11:59 | 26.67653 | 119.55209 | 40188 ft | 462 kts | 188° |
| 2026-04-30 12:00 | 26.61223 | 119.55169 | 40189 ft | 462 kts | 188° |
| 2026-04-30 12:00 | 26.54784 | 119.55129 | 40184 ft | 462 kts | 188° |
| 2026-04-30 12:01 | 26.48370 | 119.55088 | 40188 ft | 462 kts | 188° |
| 2026-04-30 12:01 | 26.41936 | 119.55046 | 40189 ft | 462 kts | 188° |
| 2026-04-30 12:02 | 26.35494 | 119.55007 | 40193 ft | 463 kts | 188° |
| 2026-04-30 12:02 | 26.29052 | 119.54931 | 40193 ft | 462 kts | 188° |
| 2026-04-30 12:03 | 26.19567 | 119.53943 | 40197 ft | 448 kts | 201° |
| 2026-04-30 12:04 | 26.13587 | 119.52056 | 40189 ft | 446 kts | 203° |
| 2026-04-30 12:04 | 26.07651 | 119.49992 | 40193 ft | 446 kts | 204° |
| 2026-04-30 12:05 | 26.01726 | 119.47932 | 40192 ft | 446 kts | 204° |
| 2026-04-30 12:05 | 25.95830 | 119.45914 | 40192 ft | 446 kts | 204° |
| 2026-04-30 12:06 | 25.89893 | 119.43897 | 40199 ft | 445 kts | 203° |
| 2026-04-30 12:06 | 25.83965 | 119.41886 | 40194 ft | 445 kts | 203° |
| 2026-04-30 12:07 | 25.78064 | 119.39784 | 40186 ft | 442 kts | 207° |
| 2026-04-30 12:07 | 25.72757 | 119.36549 | 40173 ft | 431 kts | 221° |
| 2026-04-30 12:08 | 25.68414 | 119.32084 | 40177 ft | 428 kts | 229° |
| 2026-04-30 12:08 | 25.64334 | 119.27269 | 40174 ft | 428 kts | 230° |
| 2026-04-30 12:09 | 25.60280 | 119.22422 | 40169 ft | 428 kts | 230° |
| 2026-04-30 12:09 | 25.56201 | 119.17599 | 40165 ft | 428 kts | 230° |
| 2026-04-30 12:10 | 25.52104 | 119.12793 | 40143 ft | 429 kts | 230° |
| 2026-04-30 12:10 | 25.47993 | 119.07980 | 40163 ft | 431 kts | 230° |
| 2026-04-30 12:11 | 25.43890 | 119.03186 | 40167 ft | 431 kts | 230° |
| 2026-04-30 12:11 | 25.39764 | 118.98369 | 40158 ft | 431 kts | 230° |
| 2026-04-30 12:12 | 25.35636 | 118.93553 | 40151 ft | 431 kts | 230° |
| 2026-04-30 12:12 | 25.31524 | 118.88717 | 40153 ft | 431 kts | 230° |
| 2026-04-30 12:13 | 25.27491 | 118.83813 | 40156 ft | 430 kts | 231° |
| 2026-04-30 12:13 | 25.23496 | 118.78940 | 40158 ft | 430 kts | 231° |
| 2026-04-30 12:14 | 25.19454 | 118.74042 | 40152 ft | 430 kts | 231° |
| 2026-04-30 12:14 | 25.15416 | 118.69167 | 40147 ft | 430 kts | 230° |
| 2026-04-30 12:15 | 25.11365 | 118.64287 | 40152 ft | 431 kts | 231° |
| 2026-04-30 12:15 | 25.07292 | 118.59411 | 40148 ft | 432 kts | 230° |
| 2026-04-30 12:16 | 25.03154 | 118.54663 | 40155 ft | 433 kts | 229° |
| 2026-04-30 12:16 | 24.98957 | 118.49899 | 40150 ft | 432 kts | 229° |
| 2026-04-30 12:17 | 24.92682 | 118.42737 | 40144 ft | 433 kts | 229° |
| 2026-04-30 12:17 | 24.88529 | 118.37985 | 40145 ft | 433 kts | 229° |
| 2026-04-30 12:18 | 24.84350 | 118.33206 | 40140 ft | 434 kts | 229° |
| 2026-04-30 12:18 | 24.80152 | 118.28409 | 40143 ft | 435 kts | 229° |
| 2026-04-30 12:19 | 24.75947 | 118.23616 | 40145 ft | 435 kts | 229° |
| 2026-04-30 12:19 | 24.71744 | 118.18827 | 40139 ft | 435 kts | 229° |
| 2026-04-30 12:20 | 24.67537 | 118.14040 | 40139 ft | 435 kts | 229° |
| 2026-04-30 12:20 | 24.63326 | 118.09254 | 40121 ft | 435 kts | 229° |
| 2026-04-30 12:21 | 24.59119 | 118.04474 | 40127 ft | 438 kts | 229° |
| 2026-04-30 12:21 | 24.54884 | 117.99652 | 40128 ft | 438 kts | 230° |
| 2026-04-30 12:22 | 24.50770 | 117.94696 | 40145 ft | 438 kts | 231° |
| 2026-04-30 12:22 | 24.46706 | 117.89711 | 40145 ft | 438 kts | 231° |
| 2026-04-30 12:23 | 24.42648 | 117.84774 | 40141 ft | 438 kts | 230° |
| 2026-04-30 12:23 | 24.38538 | 117.79814 | 40139 ft | 439 kts | 231° |
| 2026-04-30 12:24 | 24.34413 | 117.74850 | 40142 ft | 441 kts | 231° |
| 2026-04-30 12:24 | 24.30274 | 117.69873 | 40143 ft | 441 kts | 231° |
| 2026-04-30 12:25 | 24.26143 | 117.64911 | 40143 ft | 440 kts | 231° |
| 2026-04-30 12:25 | 24.22038 | 117.59983 | 40143 ft | 440 kts | 231° |
| 2026-04-30 12:26 | 24.17905 | 117.55028 | 40124 ft | 441 kts | 230° |
| 2026-04-30 12:26 | 24.13701 | 117.50117 | 40137 ft | 444 kts | 227° |
| 2026-04-30 12:27 | 24.09157 | 117.45522 | 40144 ft | 445 kts | 225° |
| 2026-04-30 12:27 | 24.04547 | 117.40999 | 40141 ft | 445 kts | 225° |
| 2026-04-30 12:28 | 23.99946 | 117.36511 | 40138 ft | 445 kts | 225° |
| 2026-04-30 12:28 | 23.95324 | 117.31998 | 40139 ft | 445 kts | 225° |
| 2026-04-30 12:29 | 23.90707 | 117.27484 | 40143 ft | 446 kts | 225° |
| 2026-04-30 12:29 | 23.86075 | 117.22956 | 40139 ft | 446 kts | 225° |
| 2026-04-30 12:30 | 23.81474 | 117.18470 | 40139 ft | 446 kts | 225° |
| 2026-04-30 12:30 | 23.76843 | 117.13956 | 40139 ft | 446 kts | 225° |
| 2026-04-30 12:31 | 23.72385 | 117.09250 | 40141 ft | 445 kts | 230° |
| 2026-04-30 12:31 | 23.68176 | 117.04300 | 40134 ft | 445 kts | 230° |
| 2026-04-30 12:32 | 23.63942 | 116.99340 | 40134 ft | 446 kts | 230° |
| 2026-04-30 12:32 | 23.59690 | 116.94461 | 40135 ft | 446 kts | 229° |
| 2026-04-30 12:33 | 23.56107 | 116.90391 | 40133 ft | 446 kts | 229° |
| 2026-04-30 12:33 | 23.51800 | 116.85509 | 40134 ft | 447 kts | 229° |
| 2026-04-30 12:34 | 23.47487 | 116.80624 | 40112 ft | 447 kts | 229° |
| 2026-04-30 12:34 | 23.42995 | 116.75920 | 40127 ft | 451 kts | 223° |
| 2026-04-30 12:35 | 23.38062 | 116.71673 | 40129 ft | 452 kts | 221° |
| 2026-04-30 12:35 | 23.33056 | 116.67528 | 40128 ft | 452 kts | 221° |
| 2026-04-30 12:36 | 23.28065 | 116.63412 | 40132 ft | 452 kts | 221° |
| 2026-04-30 12:36 | 23.23053 | 116.59266 | 40136 ft | 452 kts | 221° |
| 2026-04-30 12:37 | 23.18038 | 116.55110 | 40131 ft | 452 kts | 221° |
| 2026-04-30 12:37 | 23.13020 | 116.50953 | 40138 ft | 453 kts | 221° |
| 2026-04-30 12:38 | 23.07991 | 116.46791 | 40124 ft | 454 kts | 221° |
| 2026-04-30 12:38 | 23.02993 | 116.42659 | 40126 ft | 454 kts | 221° |
| 2026-04-30 12:39 | 22.98446 | 116.37988 | 40122 ft | 447 kts | 233° |
| 2026-04-30 12:39 | 22.95301 | 116.32224 | 40138 ft | 443 kts | 249° |
| 2026-04-30 12:40 | 22.93861 | 116.25765 | 40120 ft | 442 kts | 262° |
| 2026-04-30 12:40 | 22.93162 | 116.19134 | 40130 ft | 443 kts | 264° |
| 2026-04-30 12:41 | 22.92549 | 116.12479 | 40130 ft | 443 kts | 264° |
| 2026-04-30 12:41 | 22.91901 | 116.05831 | 40128 ft | 443 kts | 264° |
| 2026-04-30 12:42 | 22.91223 | 115.99228 | 40129 ft | 443 kts | 263° |
| 2026-04-30 12:42 | 22.90522 | 115.92568 | 40127 ft | 443 kts | 264° |
| 2026-04-30 12:43 | 22.89824 | 115.85912 | 40123 ft | 444 kts | 264° |
| 2026-04-30 12:43 | 22.89155 | 115.79250 | 40126 ft | 444 kts | 264° |
| 2026-04-30 12:44 | 22.88562 | 115.73290 | 40124 ft | 444 kts | 264° |
| 2026-04-30 12:44 | 22.87898 | 115.66672 | 40126 ft | 444 kts | 264° |
| 2026-04-30 12:45 | 22.87223 | 115.60003 | 40128 ft | 445 kts | 264° |
| 2026-04-30 12:45 | 22.86886 | 115.56686 | 39896 ft | 442 kts | 264° |
| 2026-04-30 12:45 | 22.86549 | 115.53379 | 39402 ft | 437 kts | 264° |
| 2026-04-30 12:46 | 22.86214 | 115.50101 | 38716 ft | 438 kts | 264° |
| 2026-04-30 12:46 | 22.85949 | 115.47507 | 38047 ft | 439 kts | 264° |
| 2026-04-30 12:46 | 22.85606 | 115.44166 | 37267 ft | 439 kts | 264° |
| 2026-04-30 12:46 | 22.85273 | 115.40917 | 36497 ft | 439 kts | 264° |
| 2026-04-30 12:47 | 22.84934 | 115.37624 | 35711 ft | 440 kts | 264° |
| 2026-04-30 12:47 | 22.84594 | 115.34316 | 34859 ft | 442 kts | 264° |
| 2026-04-30 12:47 | 22.84249 | 115.30985 | 33898 ft | 447 kts | 264° |
| 2026-04-30 12:47 | 22.83899 | 115.27611 | 32829 ft | 452 kts | 264° |
| 2026-04-30 12:48 | 22.83547 | 115.24215 | 31786 ft | 455 kts | 264° |
| 2026-04-30 12:48 | 22.83192 | 115.20791 | 30687 ft | 460 kts | 264° |
| 2026-04-30 12:48 | 22.82831 | 115.17324 | 29437 ft | 465 kts | 264° |
| 2026-04-30 12:48 | 22.82468 | 115.13839 | 28447 ft | 463 kts | 264° |
| 2026-04-30 12:49 | 22.82107 | 115.10388 | 27638 ft | 458 kts | 264° |
| 2026-04-30 12:49 | 22.81753 | 115.07010 | 26822 ft | 454 kts | 263° |
| 2026-04-30 12:49 | 22.81398 | 115.03630 | 25987 ft | 450 kts | 263° |
| 2026-04-30 12:49 | 22.81045 | 115.00268 | 25165 ft | 447 kts | 263° |
| 2026-04-30 12:50 | 22.80694 | 114.96935 | 24335 ft | 444 kts | 263° |
| 2026-04-30 12:50 | 22.80344 | 114.93623 | 23498 ft | 441 kts | 263° |
| 2026-04-30 12:50 | 22.79995 | 114.90332 | 22576 ft | 436 kts | 263° |
| 2026-04-30 12:50 | 22.79649 | 114.87083 | 21739 ft | 430 kts | 263° |
| 2026-04-30 12:51 | 22.79312 | 114.83923 | 20928 ft | 425 kts | 263° |
| 2026-04-30 12:51 | 22.78975 | 114.80761 | 20097 ft | 420 kts | 263° |
| 2026-04-30 12:51 | 22.78628 | 114.77639 | 19285 ft | 415 kts | 262° |
| 2026-04-30 12:51 | 22.77933 | 114.74615 | 18478 ft | 412 kts | 251° |
| 2026-04-30 12:52 | 22.76829 | 114.71753 | 17567 ft | 409 kts | 247° |
| 2026-04-30 12:52 | 22.75632 | 114.68986 | 16690 ft | 404 kts | 246° |
| 2026-04-30 12:52 | 22.74422 | 114.66258 | 15853 ft | 398 kts | 245° |
| 2026-04-30 12:52 | 22.73223 | 114.63572 | 15009 ft | 394 kts | 245° |
| 2026-04-30 12:53 | 22.72030 | 114.60911 | 14170 ft | 390 kts | 245° |
| 2026-04-30 12:53 | 22.70850 | 114.58280 | 13274 ft | 387 kts | 245° |
| 2026-04-30 12:53 | 22.69681 | 114.55680 | 12394 ft | 381 kts | 245° |
| 2026-04-30 12:53 | 22.68528 | 114.53116 | 11574 ft | 375 kts | 245° |
| 2026-04-30 12:54 | 22.67407 | 114.50634 | 11007 ft | 364 kts | 245° |
| 2026-04-30 12:54 | 22.66334 | 114.48255 | 10880 ft | 340 kts | 245° |
| 2026-04-30 12:54 | 22.65329 | 114.46023 | 10755 ft | 320 kts | 245° |
| 2026-04-30 12:54 | 22.64384 | 114.43919 | 10633 ft | 302 kts | 245° |
| 2026-04-30 12:55 | 22.63677 | 114.41851 | 10503 ft | 284 kts | 256° |
| 2026-04-30 12:55 | 22.63323 | 114.39802 | 10374 ft | 269 kts | 261° |
| 2026-04-30 12:55 | 22.63062 | 114.37849 | 10260 ft | 258 kts | 262° |
| 2026-04-30 12:55 | 22.62813 | 114.35933 | 10154 ft | 257 kts | 263° |
| 2026-04-30 12:56 | 22.62563 | 114.34019 | 9886 ft | 256 kts | 262° |
| 2026-04-30 12:56 | 22.62300 | 114.32050 | 9674 ft | 271 kts | 262° |
| 2026-04-30 12:56 | 22.62029 | 114.30035 | 9413 ft | 269 kts | 262° |
| 2026-04-30 12:56 | 22.61757 | 114.28017 | 8801 ft | 272 kts | 262° |
| 2026-04-30 12:57 | 22.61480 | 114.25995 | 8334 ft | 272 kts | 262° |
| 2026-04-30 12:57 | 22.61202 | 114.23973 | 7929 ft | 271 kts | 262° |
| 2026-04-30 12:57 | 22.60926 | 114.21967 | 7535 ft | 268 kts | 262° |
| 2026-04-30 12:57 | 22.60655 | 114.19999 | 7204 ft | 265 kts | 262° |
| 2026-04-30 12:58 | 22.60393 | 114.18077 | 7064 ft | 251 kts | 262° |
| 2026-04-30 12:58 | 22.60140 | 114.16245 | 6935 ft | 239 kts | 262° |
| 2026-04-30 12:58 | 22.59902 | 114.14506 | 6815 ft | 228 kts | 262° |
| 2026-04-30 12:58 | 22.59674 | 114.12848 | 6680 ft | 218 kts | 262° |
| 2026-04-30 12:59 | 22.59448 | 114.11236 | 6526 ft | 216 kts | 261° |
| 2026-04-30 12:59 | 22.59011 | 114.09680 | 6283 ft | 217 kts | 248° |
| 2026-04-30 12:59 | 22.58358 | 114.08229 | 6015 ft | 216 kts | 244° |
| 2026-04-30 12:59 | 22.57662 | 114.06801 | 5792 ft | 214 kts | 243° |
| 2026-04-30 13:00 | 22.56957 | 114.05369 | 5545 ft | 217 kts | 243° |
| 2026-04-30 13:00 | 22.56246 | 114.03914 | 5271 ft | 220 kts | 243° |
| 2026-04-30 13:00 | 22.55530 | 114.02440 | 5008 ft | 221 kts | 243° |
| 2026-04-30 13:00 | 22.54810 | 114.00962 | 4764 ft | 223 kts | 244° |
| 2026-04-30 13:01 | 22.54088 | 113.99471 | 4472 ft | 224 kts | 245° |
| 2026-04-30 13:01 | 22.53366 | 113.97975 | 4225 ft | 224 kts | 244° |
| 2026-04-30 13:01 | 22.52658 | 113.96472 | 3931 ft | 224 kts | 245° |
| 2026-04-30 13:01 | 22.51981 | 113.94943 | 3685 ft | 226 kts | 247° |
| 2026-04-30 13:02 | 22.51274 | 113.93416 | 3429 ft | 227 kts | 244° |
| 2026-04-30 13:02 | 22.50535 | 113.91913 | 3163 ft | 226 kts | 244° |
| 2026-04-30 13:02 | 22.49790 | 113.90415 | 2890 ft | 225 kts | 243° |
| 2026-04-30 13:02 | 22.49173 | 113.88908 | 2707 ft | 209 kts | 257° |
| 2026-04-30 13:03 | 22.49222 | 113.87482 | 2620 ft | 181 kts | 293° |
| 2026-04-30 13:03 | 22.49909 | 113.86460 | 2524 ft | 161 kts | 321° |
| 2026-04-30 13:03 | 22.50861 | 113.85844 | 2483 ft | 159 kts | 339° |
| 2026-04-30 13:03 | 22.51881 | 113.85362 | 2371 ft | 161 kts | 338° |
| 2026-04-30 13:04 | 22.52879 | 113.84799 | 2203 ft | 160 kts | 334° |
| 2026-04-30 13:04 | 22.53832 | 113.84265 | 1997 ft | 150 kts | 335° |
| 2026-04-30 13:04 | 22.54744 | 113.83764 | 1794 ft | 144 kts | 335° |
| 2026-04-30 13:04 | 22.55615 | 113.83286 | 1604 ft | 136 kts | 335° |
| 2026-04-30 13:05 | 22.56437 | 113.82834 | 1421 ft | 129 kts | 336° |
| 2026-04-30 13:05 | 22.57216 | 113.82407 | 1265 ft | 123 kts | 335° |
| 2026-04-30 13:05 | 22.57960 | 113.81995 | 1112 ft | 119 kts | 335° |
| 2026-04-30 13:06 | 22.59427 | 113.81189 | 809 ft | 119 kts | 334° |
| 2026-04-30 13:06 | 22.60168 | 113.80770 | 667 ft | 121 kts | 333° |
| 2026-04-30 13:06 | 22.60928 | 113.80373 | 513 ft | 122 kts | 333° |
| 2026-04-30 13:06 | 22.61671 | 113.79965 | 368 ft | 121 kts | 332° |
| 2026-04-30 13:07 | 22.62432 | 113.79537 | 197 ft | 124 kts | 333° |
| 2026-04-30 13:07 | 22.63189 | 113.79108 | 37 ft | 122 kts | 334° |
| 2026-04-30 13:07 | 22.63855 | 113.78753 | 24 ft | 83 kts | 334° |
| 2026-04-30 13:07 | 22.64222 | 113.78554 | 24 ft | 34 kts | 333° |
| 2026-04-30 13:08 | 22.64395 | 113.78473 | 23 ft | 27 kts | 345° |
| 2026-04-30 13:08 | 22.64561 | 113.78460 | 23 ft | 11 kts | 2° |
| 2026-04-30 13:08 | 22.64650 | 113.78465 | 23 ft | 15 kts | 3° |
| 2026-04-30 13:08 | 22.64764 | 113.78463 | 26 ft | 17 kts | 351° |
| 2026-04-30 13:09 | 22.64874 | 113.78415 | 24 ft | 15 kts | 332° |
| 2026-04-30 13:09 | 22.64981 | 113.78355 | 23 ft | 20 kts | 333° |
| 2026-04-30 13:09 | 22.65081 | 113.78301 | 24 ft | 14 kts | 334° |
| 2026-04-30 13:09 | 22.65183 | 113.78247 | 26 ft | 17 kts | 334° |
| 2026-04-30 13:10 | 22.65282 | 113.78193 | 25 ft | 17 kts | 333° |
| 2026-04-30 13:10 | 22.65380 | 113.78139 | 24 ft | 10 kts | 333° |
| 2026-04-30 13:10 | 22.65458 | 113.78095 | 25 ft | 15 kts | 332° |
| 2026-04-30 13:10 | 22.65566 | 113.78035 | 25 ft | 19 kts | 333° |
| 2026-04-30 13:11 | 22.65668 | 113.77979 | 24 ft | 15 kts | 333° |
| 2026-04-30 13:11 | 22.65773 | 113.77920 | 24 ft | 19 kts | 333° |
| 2026-04-30 13:11 | 22.65892 | 113.77854 | 26 ft | 21 kts | 333° |
| 2026-04-30 13:11 | 22.65966 | 113.77809 | 23 ft | 10 kts | 332° |
| 2026-04-30 13:12 | 22.66039 | 113.77812 | 25 ft | 11 kts | 11° |
| 2026-04-30 13:12 | 22.66114 | 113.77831 | 25 ft | 8 kts | 14° |
| 2026-04-30 13:12 | 22.66174 | 113.77870 | 26 ft | 13 kts | 49° |
| 2026-04-30 13:13 | 22.66258 | 113.78043 | 24 ft | 13 kts | 62° |
| 2026-04-30 13:13 | 22.66306 | 113.78146 | 25 ft | 18 kts | 63° |
| 2026-04-30 13:13 | 22.66306 | 113.78341 | 26 ft | 16 kts | 152° |
| 2026-04-30 13:14 | 22.66203 | 113.78396 | 27 ft | 9 kts | 153° |
| 2026-04-30 13:14 | 22.66128 | 113.78437 | 24 ft | 15 kts | 153° |
| 2026-04-30 13:14 | 22.65901 | 113.78562 | 23 ft | 19 kts | 153° |
| 2026-04-30 13:15 | 22.65768 | 113.78635 | 24 ft | 24 kts | 153° |
| 2026-04-30 13:15 | 22.65536 | 113.78762 | 23 ft | 23 kts | 153° |
| 2026-04-30 13:15 | 22.65381 | 113.78847 | 22 ft | 24 kts | 153° |
| 2026-04-30 13:16 | 22.65327 | 113.78876 | 24 ft | 9 kts | 153° |
| 2026-04-30 13:16 | 22.65251 | 113.78917 | 25 ft | 15 kts | 153° |
| 2026-04-30 13:16 | 22.65147 | 113.78975 | 24 ft | 17 kts | 153° |
| 2026-04-30 13:17 | 22.64875 | 113.79126 | 24 ft | 24 kts | 153° |
| 2026-04-30 13:17 | 22.64748 | 113.79196 | 23 ft | 20 kts | 153° |
| 2026-04-30 13:17 | 22.64531 | 113.79314 | 26 ft | 25 kts | 153° |
| 2026-04-30 13:18 | 22.64306 | 113.79437 | 24 ft | 27 kts | 153° |
| 2026-04-30 13:18 | 22.64062 | 113.79572 | 23 ft | 20 kts | 153° |
| 2026-04-30 13:18 | 22.63923 | 113.79648 | 26 ft | 25 kts | 153° |
| 2026-04-30 13:19 | 22.63776 | 113.79729 | 24 ft | 20 kts | 153° |
| 2026-04-30 13:19 | 22.63688 | 113.79777 | 24 ft | 23 kts | 153° |
| 2026-04-30 13:19 | 22.63480 | 113.79892 | 25 ft | 28 kts | 153° |
| 2026-04-30 13:19 | 22.63348 | 113.79963 | 26 ft | 9 kts | 153° |
| 2026-04-30 13:20 | 22.63276 | 113.80003 | 23 ft | 12 kts | 153° |
| 2026-04-30 13:20 | 22.63216 | 113.80040 | 24 ft | 8 kts | 133° |
| 2026-04-30 13:20 | 22.63203 | 113.80080 | 23 ft | 9 kts | 105° |
| 2026-04-30 13:20 | 22.63189 | 113.80141 | 25 ft | 6 kts | 103° |
| 2026-04-30 13:21 | 22.63186 | 113.80156 | 23 ft | 2 kts | 103° |
| 2026-04-30 13:21 | 22.63180 | 113.80180 | 22 ft | 1 kts | 103° |
| 2026-04-30 13:21 | 22.63181 | 113.80180 | 22 ft | 0 kts | 103° |